sensor_id;sensor_type;location;lat;lon;timestamp;temperature;humidity
75380;HTU21D;65641;44.714;37.756;2023-07-13T00:00:16;23.74;65.51
75380;HTU21D;65641;44.714;37.756;2023-07-13T00:01:19;23.75;65.41
75380;HTU21D;65641;44.714;37.756;2023-07-13T00:02:24;23.73;65.41
75380;HTU21D;65641;44.714;37.756;2023-07-13T00:03:30;23.74;65.46
75380;HTU21D;65641;44.714;37.756;2023-07-13T00:04:38;23.73;65.26
75380;HTU21D;65641;44.714;37.756;2023-07-13T00:05:41;23.74;65.35
75380;HTU21D;65641;44.714;37.756;2023-07-13T00:06:46;23.72;65.35
75380;HTU21D;65641;44.714;37.756;2023-07-13T00:07:51;23.72;65.30
75380;HTU21D;65641;44.714;37.756;2023-07-13T00:08:54;23.72;65.56
75380;HTU21D;65641;44.714;37.756;2023-07-13T00:09:58;23.73;65.53
75380;HTU21D;65641;44.714;37.756;2023-07-13T00:11:02;23.69;65.45
75380;HTU21D;65641;44.714;37.756;2023-07-13T00:12:42;23.70;65.33
75380;HTU21D;65641;44.714;37.756;2023-07-13T00:13:45;23.70;65.52
75380;HTU21D;65641;44.714;37.756;2023-07-13T00:14:49;23.70;65.56
75380;HTU21D;65641;44.714;37.756;2023-07-13T00:15:53;23.69;65.40
75380;HTU21D;65641;44.714;37.756;2023-07-13T00:16:59;23.69;65.43
75380;HTU21D;65641;44.714;37.756;2023-07-13T00:18:03;23.69;65.40
75380;HTU21D;65641;44.714;37.756;2023-07-13T00:19:07;23.69;65.57
75380;HTU21D;65641;44.714;37.756;2023-07-13T00:20:11;23.69;65.61
75380;HTU21D;65641;44.714;37.756;2023-07-13T00:21:15;23.69;65.41
75380;HTU21D;65641;44.714;37.756;2023-07-13T00:22:24;23.68;65.54
75380;HTU21D;65641;44.714;37.756;2023-07-13T00:23:33;23.69;65.66
75380;HTU21D;65641;44.714;37.756;2023-07-13T00:24:37;23.69;65.56
75380;HTU21D;65641;44.714;37.756;2023-07-13T00:25:44;23.68;65.46
75380;HTU21D;65641;44.714;37.756;2023-07-13T00:26:48;23.70;65.54
75380;HTU21D;65641;44.714;37.756;2023-07-13T00:27:51;23.69;65.44
75380;HTU21D;65641;44.714;37.756;2023-07-13T00:28:55;23.68;65.56
75380;HTU21D;65641;44.714;37.756;2023-07-13T00:29:58;23.70;65.57
75380;HTU21D;65641;44.714;37.756;2023-07-13T00:31:09;23.69;65.50
75380;HTU21D;65641;44.714;37.756;2023-07-13T00:32:13;23.68;65.67
75380;HTU21D;65641;44.714;37.756;2023-07-13T00:33:17;23.68;65.45
75380;HTU21D;65641;44.714;37.756;2023-07-13T00:34:20;23.68;65.58
75380;HTU21D;65641;44.714;37.756;2023-07-13T00:35:25;23.68;65.56
75380;HTU21D;65641;44.714;37.756;2023-07-13T00:36:30;23.68;65.66
75380;HTU21D;65641;44.714;37.756;2023-07-13T00:37:34;23.68;65.59
75380;HTU21D;65641;44.714;37.756;2023-07-13T00:38:38;23.67;65.75
75380;HTU21D;65641;44.714;37.756;2023-07-13T00:39:43;23.66;65.51
75380;HTU21D;65641;44.714;37.756;2023-07-13T00:40:46;23.66;65.62
75380;HTU21D;65641;44.714;37.756;2023-07-13T00:41:51;23.65;65.78
75380;HTU21D;65641;44.714;37.756;2023-07-13T00:42:57;23.66;65.79
75380;HTU21D;65641;44.714;37.756;2023-07-13T00:44:02;23.64;65.74
75380;HTU21D;65641;44.714;37.756;2023-07-13T00:46:20;23.64;65.96
75380;HTU21D;65641;44.714;37.756;2023-07-13T00:47:24;23.62;65.91
75380;HTU21D;65641;44.714;37.756;2023-07-13T00:48:32;23.62;65.86
75380;HTU21D;65641;44.714;37.756;2023-07-13T00:49:36;23.65;65.86
75380;HTU21D;65641;44.714;37.756;2023-07-13T00:50:40;23.62;65.93
75380;HTU21D;65641;44.714;37.756;2023-07-13T00:51:57;23.62;65.84
75380;HTU21D;65641;44.714;37.756;2023-07-13T00:53:02;23.62;65.81
75380;HTU21D;65641;44.714;37.756;2023-07-13T00:54:10;23.60;65.87
75380;HTU21D;65641;44.714;37.756;2023-07-13T00:55:17;23.61;66.14
75380;HTU21D;65641;44.714;37.756;2023-07-13T00:56:21;23.60;66.04
75380;HTU21D;65641;44.714;37.756;2023-07-13T00:57:30;23.59;65.87
75380;HTU21D;65641;44.714;37.756;2023-07-13T00:58:35;23.58;66.01
75380;HTU21D;65641;44.714;37.756;2023-07-13T00:59:42;23.57;66.04
75380;HTU21D;65641;44.714;37.756;2023-07-13T01:00:47;23.56;66.17
75380;HTU21D;65641;44.714;37.756;2023-07-13T01:01:51;23.55;66.07
75380;HTU21D;65641;44.714;37.756;2023-07-13T01:02:56;23.55;66.20
75380;HTU21D;65641;44.714;37.756;2023-07-13T01:04:01;23.54;66.22
75380;HTU21D;65641;44.714;37.756;2023-07-13T01:05:18;23.54;66.48
75380;HTU21D;65641;44.714;37.756;2023-07-13T01:06:28;23.52;66.43
75380;HTU21D;65641;44.714;37.756;2023-07-13T01:07:31;23.53;66.46
75380;HTU21D;65641;44.714;37.756;2023-07-13T01:08:35;23.53;66.46
75380;HTU21D;65641;44.714;37.756;2023-07-13T01:09:38;23.51;66.59
75380;HTU21D;65641;44.714;37.756;2023-07-13T01:10:55;23.52;66.27
75380;HTU21D;65641;44.714;37.756;2023-07-13T01:11:59;23.50;66.44
75380;HTU21D;65641;44.714;37.756;2023-07-13T01:13:03;23.51;66.50
75380;HTU21D;65641;44.714;37.756;2023-07-13T01:14:07;23.51;66.32
75380;HTU21D;65641;44.714;37.756;2023-07-13T01:16:37;23.47;66.51
75380;HTU21D;65641;44.714;37.756;2023-07-13T01:17:42;23.49;66.56
75380;HTU21D;65641;44.714;37.756;2023-07-13T01:18:47;23.46;66.53
75380;HTU21D;65641;44.714;37.756;2023-07-13T01:19:51;23.46;66.59
75380;HTU21D;65641;44.714;37.756;2023-07-13T01:21:00;23.45;66.81
75380;HTU21D;65641;44.714;37.756;2023-07-13T01:22:13;23.45;66.87
75380;HTU21D;65641;44.714;37.756;2023-07-13T01:23:17;23.42;67.01
75380;HTU21D;65641;44.714;37.756;2023-07-13T01:24:21;23.42;66.79
75380;HTU21D;65641;44.714;37.756;2023-07-13T01:25:25;23.42;66.95
75380;HTU21D;65641;44.714;37.756;2023-07-13T01:26:28;23.42;66.97
75380;HTU21D;65641;44.714;37.756;2023-07-13T01:27:33;23.41;66.96
75380;HTU21D;65641;44.714;37.756;2023-07-13T01:28:38;23.42;66.86
75380;HTU21D;65641;44.714;37.756;2023-07-13T01:29:44;23.40;66.86
75380;HTU21D;65641;44.714;37.756;2023-07-13T01:30:49;23.40;67.06
75380;HTU21D;65641;44.714;37.756;2023-07-13T01:31:53;23.40;67.09
75380;HTU21D;65641;44.714;37.756;2023-07-13T01:32:57;23.40;67.13
75380;HTU21D;65641;44.714;37.756;2023-07-13T01:34:01;23.40;66.91
75380;HTU21D;65641;44.714;37.756;2023-07-13T01:35:05;23.40;67.17
75380;HTU21D;65641;44.714;37.756;2023-07-13T01:36:10;23.38;67.17
75380;HTU21D;65641;44.714;37.756;2023-07-13T01:37:14;23.38;67.18
75380;HTU21D;65641;44.714;37.756;2023-07-13T01:38:20;23.37;67.25
75380;HTU21D;65641;44.714;37.756;2023-07-13T01:39:24;23.37;67.29
75380;HTU21D;65641;44.714;37.756;2023-07-13T01:40:29;23.36;67.48
75380;HTU21D;65641;44.714;37.756;2023-07-13T01:41:33;23.37;67.52
75380;HTU21D;65641;44.714;37.756;2023-07-13T01:42:42;23.36;67.44
75380;HTU21D;65641;44.714;37.756;2023-07-13T01:43:45;23.36;67.47
75380;HTU21D;65641;44.714;37.756;2023-07-13T01:44:49;23.36;67.36
75380;HTU21D;65641;44.714;37.756;2023-07-13T01:45:52;23.35;67.48
75380;HTU21D;65641;44.714;37.756;2023-07-13T01:47:05;23.37;67.52
75380;HTU21D;65641;44.714;37.756;2023-07-13T01:48:10;23.36;67.46
75380;HTU21D;65641;44.714;37.756;2023-07-13T01:49:13;23.37;67.51
75380;HTU21D;65641;44.714;37.756;2023-07-13T01:50:18;23.38;67.38
75380;HTU21D;65641;44.714;37.756;2023-07-13T01:51:22;23.38;67.46
75380;HTU21D;65641;44.714;37.756;2023-07-13T01:52:25;23.39;67.43
75380;HTU21D;65641;44.714;37.756;2023-07-13T01:53:29;23.40;67.46
75380;HTU21D;65641;44.714;37.756;2023-07-13T01:54:32;23.39;67.38
75380;HTU21D;65641;44.714;37.756;2023-07-13T01:55:37;23.40;67.41
75380;HTU21D;65641;44.714;37.756;2023-07-13T01:56:40;23.43;67.39
75380;HTU21D;65641;44.714;37.756;2023-07-13T01:57:44;23.42;67.54
75380;HTU21D;65641;44.714;37.756;2023-07-13T01:58:49;23.44;67.31
75380;HTU21D;65641;44.714;37.756;2023-07-13T01:59:52;23.45;67.32
75380;HTU21D;65641;44.714;37.756;2023-07-13T02:00:57;23.46;67.39
75380;HTU21D;65641;44.714;37.756;2023-07-13T02:02:00;23.46;67.35
75380;HTU21D;65641;44.714;37.756;2023-07-13T02:03:04;23.47;67.36
75380;HTU21D;65641;44.714;37.756;2023-07-13T02:04:08;23.50;67.32
75380;HTU21D;65641;44.714;37.756;2023-07-13T02:05:12;23.50;67.32
75380;HTU21D;65641;44.714;37.756;2023-07-13T02:06:17;23.50;67.32
75380;HTU21D;65641;44.714;37.756;2023-07-13T02:07:21;23.52;67.14
75380;HTU21D;65641;44.714;37.756;2023-07-13T02:08:24;23.54;67.20
75380;HTU21D;65641;44.714;37.756;2023-07-13T02:09:28;23.54;67.14
75380;HTU21D;65641;44.714;37.756;2023-07-13T02:10:32;23.55;67.00
75380;HTU21D;65641;44.714;37.756;2023-07-13T02:11:36;23.57;66.97
75380;HTU21D;65641;44.714;37.756;2023-07-13T02:12:40;23.57;66.72
75380;HTU21D;65641;44.714;37.756;2023-07-13T02:13:44;23.59;66.78
75380;HTU21D;65641;44.714;37.756;2023-07-13T02:14:48;23.61;66.75
75380;HTU21D;65641;44.714;37.756;2023-07-13T02:15:52;23.61;66.60
75380;HTU21D;65641;44.714;37.756;2023-07-13T02:17:01;23.61;66.63
75380;HTU21D;65641;44.714;37.756;2023-07-13T02:18:05;23.64;66.61
75380;HTU21D;65641;44.714;37.756;2023-07-13T02:19:09;23.66;66.51
75380;HTU21D;65641;44.714;37.756;2023-07-13T02:20:12;23.66;66.53
75380;HTU21D;65641;44.714;37.756;2023-07-13T02:21:16;23.65;66.48
75380;HTU21D;65641;44.714;37.756;2023-07-13T02:22:21;23.67;66.49
75380;HTU21D;65641;44.714;37.756;2023-07-13T02:23:24;23.67;66.43
75380;HTU21D;65641;44.714;37.756;2023-07-13T02:24:28;23.69;66.49
75380;HTU21D;65641;44.714;37.756;2023-07-13T02:25:32;23.69;66.52
75380;HTU21D;65641;44.714;37.756;2023-07-13T02:26:35;23.68;66.48
75380;HTU21D;65641;44.714;37.756;2023-07-13T02:27:39;23.69;66.52
75380;HTU21D;65641;44.714;37.756;2023-07-13T02:28:42;23.69;66.62
75380;HTU21D;65641;44.714;37.756;2023-07-13T02:29:47;23.70;66.56
75380;HTU21D;65641;44.714;37.756;2023-07-13T02:30:51;23.71;66.56
75380;HTU21D;65641;44.714;37.756;2023-07-13T02:31:59;23.72;66.59
75380;HTU21D;65641;44.714;37.756;2023-07-13T02:33:03;23.74;66.58
75380;HTU21D;65641;44.714;37.756;2023-07-13T02:34:06;23.75;66.57
75380;HTU21D;65641;44.714;37.756;2023-07-13T02:35:12;23.80;66.50
75380;HTU21D;65641;44.714;37.756;2023-07-13T02:36:16;23.82;66.43
75380;HTU21D;65641;44.714;37.756;2023-07-13T02:37:20;23.85;66.35
75380;HTU21D;65641;44.714;37.756;2023-07-13T02:38:24;23.85;66.22
75380;HTU21D;65641;44.714;37.756;2023-07-13T02:39:28;23.87;66.16
75380;HTU21D;65641;44.714;37.756;2023-07-13T02:40:31;23.87;66.13
75380;HTU21D;65641;44.714;37.756;2023-07-13T02:41:36;23.89;66.09
75380;HTU21D;65641;44.714;37.756;2023-07-13T02:42:40;23.89;66.15
75380;HTU21D;65641;44.714;37.756;2023-07-13T02:43:44;23.89;66.08
75380;HTU21D;65641;44.714;37.756;2023-07-13T02:44:47;23.91;66.03
75380;HTU21D;65641;44.714;37.756;2023-07-13T02:45:53;23.94;65.98
75380;HTU21D;65641;44.714;37.756;2023-07-13T02:46:57;23.97;65.87
75380;HTU21D;65641;44.714;37.756;2023-07-13T02:48:06;23.98;65.75
75380;HTU21D;65641;44.714;37.756;2023-07-13T02:49:10;24.01;65.68
75380;HTU21D;65641;44.714;37.756;2023-07-13T02:50:13;24.02;65.64
75380;HTU21D;65641;44.714;37.756;2023-07-13T02:51:17;24.02;65.62
75380;HTU21D;65641;44.714;37.756;2023-07-13T02:52:20;24.02;65.61
75380;HTU21D;65641;44.714;37.756;2023-07-13T02:53:24;24.02;65.57
75380;HTU21D;65641;44.714;37.756;2023-07-13T02:54:29;24.02;65.53
75380;HTU21D;65641;44.714;37.756;2023-07-13T02:55:32;24.02;65.61
75380;HTU21D;65641;44.714;37.756;2023-07-13T02:56:36;24.03;65.62
75380;HTU21D;65641;44.714;37.756;2023-07-13T02:57:42;24.01;65.57
75380;HTU21D;65641;44.714;37.756;2023-07-13T02:58:45;24.01;65.60
75380;HTU21D;65641;44.714;37.756;2023-07-13T02:59:49;24.02;65.62
75380;HTU21D;65641;44.714;37.756;2023-07-13T03:00:59;24.01;65.59
75380;HTU21D;65641;44.714;37.756;2023-07-13T03:02:03;24.02;65.66
75380;HTU21D;65641;44.714;37.756;2023-07-13T03:03:06;24.03;65.62
75380;HTU21D;65641;44.714;37.756;2023-07-13T03:04:10;24.02;65.67
75380;HTU21D;65641;44.714;37.756;2023-07-13T03:05:16;24.02;65.62
75380;HTU21D;65641;44.714;37.756;2023-07-13T03:06:20;24.03;65.59
75380;HTU21D;65641;44.714;37.756;2023-07-13T03:07:29;24.02;65.61
75380;HTU21D;65641;44.714;37.756;2023-07-13T03:08:34;24.02;65.63
75380;HTU21D;65641;44.714;37.756;2023-07-13T03:09:39;24.02;65.62
75380;HTU21D;65641;44.714;37.756;2023-07-13T03:10:43;24.02;65.65
75380;HTU21D;65641;44.714;37.756;2023-07-13T03:11:48;24.04;65.65
75380;HTU21D;65641;44.714;37.756;2023-07-13T03:13:04;24.02;65.64
75380;HTU21D;65641;44.714;37.756;2023-07-13T03:14:08;24.02;65.66
75380;HTU21D;65641;44.714;37.756;2023-07-13T03:15:13;24.01;65.66
75380;HTU21D;65641;44.714;37.756;2023-07-13T03:16:19;24.01;65.62
75380;HTU21D;65641;44.714;37.756;2023-07-13T03:17:25;24.00;65.71
75380;HTU21D;65641;44.714;37.756;2023-07-13T03:18:29;23.99;65.69
75380;HTU21D;65641;44.714;37.756;2023-07-13T03:19:36;23.99;65.70
75380;HTU21D;65641;44.714;37.756;2023-07-13T03:20:40;24.00;65.71
75380;HTU21D;65641;44.714;37.756;2023-07-13T03:21:43;23.99;65.72
75380;HTU21D;65641;44.714;37.756;2023-07-13T03:22:52;23.98;65.75
75380;HTU21D;65641;44.714;37.756;2023-07-13T03:23:56;23.98;65.76
75380;HTU21D;65641;44.714;37.756;2023-07-13T03:25:00;23.98;65.84
75380;HTU21D;65641;44.714;37.756;2023-07-13T03:26:10;23.97;65.80
75380;HTU21D;65641;44.714;37.756;2023-07-13T03:27:17;23.98;65.81
75380;HTU21D;65641;44.714;37.756;2023-07-13T03:28:23;23.98;65.83
75380;HTU21D;65641;44.714;37.756;2023-07-13T03:29:27;23.98;65.83
75380;HTU21D;65641;44.714;37.756;2023-07-13T03:30:30;23.98;65.82
75380;HTU21D;65641;44.714;37.756;2023-07-13T03:31:35;23.96;65.82
75380;HTU21D;65641;44.714;37.756;2023-07-13T03:32:39;23.97;65.85
75380;HTU21D;65641;44.714;37.756;2023-07-13T03:33:43;23.96;65.82
75380;HTU21D;65641;44.714;37.756;2023-07-13T03:34:48;23.96;65.78
75380;HTU21D;65641;44.714;37.756;2023-07-13T03:35:52;23.96;65.80
75380;HTU21D;65641;44.714;37.756;2023-07-13T03:36:56;23.97;65.75
75380;HTU21D;65641;44.714;37.756;2023-07-13T03:38:00;23.97;65.75
75380;HTU21D;65641;44.714;37.756;2023-07-13T03:39:04;23.97;65.72
75380;HTU21D;65641;44.714;37.756;2023-07-13T03:40:31;23.98;65.66
75380;HTU21D;65641;44.714;37.756;2023-07-13T03:41:35;24.00;65.66
75380;HTU21D;65641;44.714;37.756;2023-07-13T03:42:39;24.00;65.58
75380;HTU21D;65641;44.714;37.756;2023-07-13T03:43:43;24.03;65.59
75380;HTU21D;65641;44.714;37.756;2023-07-13T03:44:47;24.03;65.51
75380;HTU21D;65641;44.714;37.756;2023-07-13T03:45:56;24.04;65.43
75380;HTU21D;65641;44.714;37.756;2023-07-13T03:47:00;24.05;65.40
75380;HTU21D;65641;44.714;37.756;2023-07-13T03:48:04;24.08;65.34
75380;HTU21D;65641;44.714;37.756;2023-07-13T03:49:09;24.09;65.28
75380;HTU21D;65641;44.714;37.756;2023-07-13T03:50:13;24.10;65.21
75380;HTU21D;65641;44.714;37.756;2023-07-13T03:51:18;24.11;65.17
75380;HTU21D;65641;44.714;37.756;2023-07-13T03:52:21;24.13;65.12
75380;HTU21D;65641;44.714;37.756;2023-07-13T03:53:25;24.14;64.97
75380;HTU21D;65641;44.714;37.756;2023-07-13T03:54:28;24.15;64.84
75380;HTU21D;65641;44.714;37.756;2023-07-13T03:55:33;24.17;64.72
75380;HTU21D;65641;44.714;37.756;2023-07-13T03:56:37;24.18;64.62
75380;HTU21D;65641;44.714;37.756;2023-07-13T03:57:42;24.19;64.51
75380;HTU21D;65641;44.714;37.756;2023-07-13T03:58:48;24.20;64.42
75380;HTU21D;65641;44.714;37.756;2023-07-13T03:59:54;24.24;64.31
75380;HTU21D;65641;44.714;37.756;2023-07-13T04:00:59;24.26;64.14
75380;HTU21D;65641;44.714;37.756;2023-07-13T04:02:03;24.28;64.03
75380;HTU21D;65641;44.714;37.756;2023-07-13T04:03:09;24.28;63.97
75380;HTU21D;65641;44.714;37.756;2023-07-13T04:04:13;24.28;63.91
75380;HTU21D;65641;44.714;37.756;2023-07-13T04:05:20;24.29;63.86
75380;HTU21D;65641;44.714;37.756;2023-07-13T04:06:27;24.30;63.79
75380;HTU21D;65641;44.714;37.756;2023-07-13T04:07:32;24.33;63.79
75380;HTU21D;65641;44.714;37.756;2023-07-13T04:08:36;24.35;63.70
75380;HTU21D;65641;44.714;37.756;2023-07-13T04:09:40;24.38;63.70
75380;HTU21D;65641;44.714;37.756;2023-07-13T04:10:46;24.40;63.71
75380;HTU21D;65641;44.714;37.756;2023-07-13T04:11:50;24.43;63.65
75380;HTU21D;65641;44.714;37.756;2023-07-13T04:12:53;24.46;63.63
75380;HTU21D;65641;44.714;37.756;2023-07-13T04:13:57;24.48;63.50
75380;HTU21D;65641;44.714;37.756;2023-07-13T04:15:01;24.53;63.39
75380;HTU21D;65641;44.714;37.756;2023-07-13T04:16:05;24.57;63.31
75380;HTU21D;65641;44.714;37.756;2023-07-13T04:17:09;24.59;63.16
75380;HTU21D;65641;44.714;37.756;2023-07-13T04:18:12;24.62;63.08
75380;HTU21D;65641;44.714;37.756;2023-07-13T04:19:16;24.68;62.92
75380;HTU21D;65641;44.714;37.756;2023-07-13T04:20:19;24.70;62.85
75380;HTU21D;65641;44.714;37.756;2023-07-13T04:21:23;24.73;62.66
75380;HTU21D;65641;44.714;37.756;2023-07-13T04:22:27;24.77;62.55
75380;HTU21D;65641;44.714;37.756;2023-07-13T04:23:31;24.79;62.49
75380;HTU21D;65641;44.714;37.756;2023-07-13T04:24:34;24.83;62.36
75380;HTU21D;65641;44.714;37.756;2023-07-13T04:25:38;24.85;62.26
75380;HTU21D;65641;44.714;37.756;2023-07-13T04:26:47;24.87;62.16
75380;HTU21D;65641;44.714;37.756;2023-07-13T04:27:50;24.88;62.10
75380;HTU21D;65641;44.714;37.756;2023-07-13T04:28:55;24.92;62.02
75380;HTU21D;65641;44.714;37.756;2023-07-13T04:29:59;24.93;61.89
75380;HTU21D;65641;44.714;37.756;2023-07-13T04:31:03;24.97;61.82
75380;HTU21D;65641;44.714;37.756;2023-07-13T04:32:07;25.01;61.67
75380;HTU21D;65641;44.714;37.756;2023-07-13T04:33:11;25.04;61.54
75380;HTU21D;65641;44.714;37.756;2023-07-13T04:34:15;25.06;61.38
75380;HTU21D;65641;44.714;37.756;2023-07-13T04:35:20;25.08;61.35
75380;HTU21D;65641;44.714;37.756;2023-07-13T04:36:24;25.10;61.21
75380;HTU21D;65641;44.714;37.756;2023-07-13T04:37:30;25.13;61.13
75380;HTU21D;65641;44.714;37.756;2023-07-13T04:38:34;25.14;61.06
75380;HTU21D;65641;44.714;37.756;2023-07-13T04:39:37;25.17;61.03
75380;HTU21D;65641;44.714;37.756;2023-07-13T04:40:44;25.23;60.86
75380;HTU21D;65641;44.714;37.756;2023-07-13T04:41:48;25.31;60.61
75380;HTU21D;65641;44.714;37.756;2023-07-13T04:42:52;25.38;60.28
75380;HTU21D;65641;44.714;37.756;2023-07-13T04:43:55;25.49;59.99
75380;HTU21D;65641;44.714;37.756;2023-07-13T04:44:59;25.63;59.59
75380;HTU21D;65641;44.714;37.756;2023-07-13T04:46:06;25.78;59.07
75380;HTU21D;65641;44.714;37.756;2023-07-13T04:47:10;25.93;58.64
75380;HTU21D;65641;44.714;37.756;2023-07-13T04:48:13;26.09;58.15
75380;HTU21D;65641;44.714;37.756;2023-07-13T04:49:17;26.21;57.81
75380;HTU21D;65641;44.714;37.756;2023-07-13T04:50:21;26.34;57.38
75380;HTU21D;65641;44.714;37.756;2023-07-13T04:51:26;26.46;57.08
75380;HTU21D;65641;44.714;37.756;2023-07-13T04:52:35;26.58;56.69
75380;HTU21D;65641;44.714;37.756;2023-07-13T04:53:38;26.69;56.34
75380;HTU21D;65641;44.714;37.756;2023-07-13T04:54:42;26.78;56.13
75380;HTU21D;65641;44.714;37.756;2023-07-13T04:55:46;26.85;55.87
75380;HTU21D;65641;44.714;37.756;2023-07-13T04:56:50;26.92;55.72
75380;HTU21D;65641;44.714;37.756;2023-07-13T04:57:53;27.01;55.46
75380;HTU21D;65641;44.714;37.756;2023-07-13T04:58:57;27.09;55.28
75380;HTU21D;65641;44.714;37.756;2023-07-13T05:00:02;27.13;55.16
75380;HTU21D;65641;44.714;37.756;2023-07-13T05:01:09;27.19;54.98
75380;HTU21D;65641;44.714;37.756;2023-07-13T05:02:14;27.23;54.93
75380;HTU21D;65641;44.714;37.756;2023-07-13T05:03:17;27.31;54.76
75380;HTU21D;65641;44.714;37.756;2023-07-13T05:04:21;27.38;54.57
75380;HTU21D;65641;44.714;37.756;2023-07-13T05:05:30;27.42;54.43
75380;HTU21D;65641;44.714;37.756;2023-07-13T05:06:33;27.49;54.30
75380;HTU21D;65641;44.714;37.756;2023-07-13T05:07:37;27.53;54.15
75380;HTU21D;65641;44.714;37.756;2023-07-13T05:08:40;27.57;54.03
75380;HTU21D;65641;44.714;37.756;2023-07-13T05:09:44;27.57;53.96
75380;HTU21D;65641;44.714;37.756;2023-07-13T05:10:48;27.55;53.97
75380;HTU21D;65641;44.714;37.756;2023-07-13T05:11:51;27.56;54.04
75380;HTU21D;65641;44.714;37.756;2023-07-13T05:12:55;27.54;54.05
75380;HTU21D;65641;44.714;37.756;2023-07-13T05:13:58;27.53;54.07
75380;HTU21D;65641;44.714;37.756;2023-07-13T05:15:04;27.52;54.18
75380;HTU21D;65641;44.714;37.756;2023-07-13T05:16:08;27.52;54.20
75380;HTU21D;65641;44.714;37.756;2023-07-13T05:17:12;27.52;54.09
75380;HTU21D;65641;44.714;37.756;2023-07-13T05:18:15;27.50;54.20
75380;HTU21D;65641;44.714;37.756;2023-07-13T05:19:19;27.49;54.16
75380;HTU21D;65641;44.714;37.756;2023-07-13T05:20:22;27.50;54.10
75380;HTU21D;65641;44.714;37.756;2023-07-13T05:21:26;27.50;54.10
75380;HTU21D;65641;44.714;37.756;2023-07-13T05:22:30;27.51;54.11
75380;HTU21D;65641;44.714;37.756;2023-07-13T05:23:34;27.56;53.97
75380;HTU21D;65641;44.714;37.756;2023-07-13T05:24:38;27.61;53.44
75380;HTU21D;65641;44.714;37.756;2023-07-13T05:25:42;27.66;53.61
75380;HTU21D;65641;44.714;37.756;2023-07-13T05:26:45;27.68;53.49
75380;HTU21D;65641;44.714;37.756;2023-07-13T05:27:49;27.69;53.50
75380;HTU21D;65641;44.714;37.756;2023-07-13T05:28:53;27.71;52.91
75380;HTU21D;65641;44.714;37.756;2023-07-13T05:29:56;27.74;52.52
75380;HTU21D;65641;44.714;37.756;2023-07-13T05:31:00;27.73;53.02
75380;HTU21D;65641;44.714;37.756;2023-07-13T05:32:04;27.72;52.53
75380;HTU21D;65641;44.714;37.756;2023-07-13T05:33:08;27.73;52.13
75380;HTU21D;65641;44.714;37.756;2023-07-13T05:34:11;27.75;52.35
75380;HTU21D;65641;44.714;37.756;2023-07-13T05:35:15;27.75;52.14
75380;HTU21D;65641;44.714;37.756;2023-07-13T05:36:24;27.78;52.27
75380;HTU21D;65641;44.714;37.756;2023-07-13T05:37:27;27.79;52.03
75380;HTU21D;65641;44.714;37.756;2023-07-13T05:38:31;27.83;52.23
75380;HTU21D;65641;44.714;37.756;2023-07-13T05:39:35;27.86;51.90
75380;HTU21D;65641;44.714;37.756;2023-07-13T05:40:39;27.94;51.64
75380;HTU21D;65641;44.714;37.756;2023-07-13T05:41:42;27.98;51.69
75380;HTU21D;65641;44.714;37.756;2023-07-13T05:42:46;28.03;51.56
75380;HTU21D;65641;44.714;37.756;2023-07-13T05:43:49;28.09;51.14
75380;HTU21D;65641;44.714;37.756;2023-07-13T05:44:53;28.11;51.34
75380;HTU21D;65641;44.714;37.756;2023-07-13T05:45:57;28.12;51.24
75380;HTU21D;65641;44.714;37.756;2023-07-13T05:47:01;28.13;51.02
75380;HTU21D;65641;44.714;37.756;2023-07-13T05:48:04;28.13;51.09
75380;HTU21D;65641;44.714;37.756;2023-07-13T05:49:08;28.15;51.04
75380;HTU21D;65641;44.714;37.756;2023-07-13T05:50:11;28.15;51.04
75380;HTU21D;65641;44.714;37.756;2023-07-13T05:51:15;28.15;50.78
75380;HTU21D;65641;44.714;37.756;2023-07-13T05:52:18;28.14;50.99
75380;HTU21D;65641;44.714;37.756;2023-07-13T05:53:22;28.12;50.87
75380;HTU21D;65641;44.714;37.756;2023-07-13T05:54:26;28.12;50.94
75380;HTU21D;65641;44.714;37.756;2023-07-13T05:55:30;28.11;50.95
75380;HTU21D;65641;44.714;37.756;2023-07-13T05:56:33;28.10;51.06
75380;HTU21D;65641;44.714;37.756;2023-07-13T05:57:37;28.11;51.03
75380;HTU21D;65641;44.714;37.756;2023-07-13T05:58:41;28.11;51.21
75380;HTU21D;65641;44.714;37.756;2023-07-13T05:59:50;28.09;51.08
75380;HTU21D;65641;44.714;37.756;2023-07-13T06:01:02;28.08;51.08
75380;HTU21D;65641;44.714;37.756;2023-07-13T06:02:09;28.06;51.13
75380;HTU21D;65641;44.714;37.756;2023-07-13T06:03:12;28.04;51.05
75380;HTU21D;65641;44.714;37.756;2023-07-13T06:04:16;28.01;51.21
75380;HTU21D;65641;44.714;37.756;2023-07-13T06:05:20;27.97;51.24
75380;HTU21D;65641;44.714;37.756;2023-07-13T06:06:23;28.00;51.37
75380;HTU21D;65641;44.714;37.756;2023-07-13T06:07:27;27.98;51.14
75380;HTU21D;65641;44.714;37.756;2023-07-13T06:08:36;28.00;51.37
75380;HTU21D;65641;44.714;37.756;2023-07-13T06:09:40;28.01;51.17
75380;HTU21D;65641;44.714;37.756;2023-07-13T06:10:43;28.02;51.01
75380;HTU21D;65641;44.714;37.756;2023-07-13T06:11:47;28.02;51.21
75380;HTU21D;65641;44.714;37.756;2023-07-13T06:12:51;28.02;51.17
75380;HTU21D;65641;44.714;37.756;2023-07-13T06:13:54;28.02;51.16
75380;HTU21D;65641;44.714;37.756;2023-07-13T06:14:58;28.05;51.04
75380;HTU21D;65641;44.714;37.756;2023-07-13T06:16:02;28.06;51.08
75380;HTU21D;65641;44.714;37.756;2023-07-13T06:17:07;28.06;51.06
75380;HTU21D;65641;44.714;37.756;2023-07-13T06:18:11;28.08;51.08
75380;HTU21D;65641;44.714;37.756;2023-07-13T06:19:15;28.09;50.96
75380;HTU21D;65641;44.714;37.756;2023-07-13T06:20:19;28.09;50.87
75380;HTU21D;65641;44.714;37.756;2023-07-13T06:21:23;28.06;50.96
75380;HTU21D;65641;44.714;37.756;2023-07-13T06:22:26;28.05;51.06
75380;HTU21D;65641;44.714;37.756;2023-07-13T06:23:30;28.04;51.10
75380;HTU21D;65641;44.714;37.756;2023-07-13T06:24:33;28.03;51.14
75380;HTU21D;65641;44.714;37.756;2023-07-13T06:25:37;28.02;51.17
75380;HTU21D;65641;44.714;37.756;2023-07-13T06:26:41;27.99;51.24
75380;HTU21D;65641;44.714;37.756;2023-07-13T06:27:44;27.98;51.27
75380;HTU21D;65641;44.714;37.756;2023-07-13T06:28:48;27.98;51.21
75380;HTU21D;65641;44.714;37.756;2023-07-13T06:29:51;28.00;51.11
75380;HTU21D;65641;44.714;37.756;2023-07-13T06:30:55;28.03;51.19
75380;HTU21D;65641;44.714;37.756;2023-07-13T06:31:58;28.05;51.04
75380;HTU21D;65641;44.714;37.756;2023-07-13T06:33:02;28.06;50.88
75380;HTU21D;65641;44.714;37.756;2023-07-13T06:34:06;28.06;50.87
75380;HTU21D;65641;44.714;37.756;2023-07-13T06:35:09;28.02;50.82
75380;HTU21D;65641;44.714;37.756;2023-07-13T06:36:16;28.03;51.04
75380;HTU21D;65641;44.714;37.756;2023-07-13T06:37:19;28.01;50.97
75380;HTU21D;65641;44.714;37.756;2023-07-13T06:38:23;28.01;50.98
75380;HTU21D;65641;44.714;37.756;2023-07-13T06:39:27;27.99;51.08